Time;durP1;ratioP1;P1;durP2;ratioP2;P2;SDS_P1;SDS_P2;PMS_P1;PMS_P2;Temp;Humidity;BMP_temperature;BMP_pressure;BME280_temperature;BME280_humidity;BME280_pressure;Samples;Min_cycle;Max_cycle;Signal;HPM_P1;HPM_P2
2022/04/27 00:00:38;;;;;;;8.93;5.80;;;;;;;12.97;62.66;100264.19;4985027;28;20058;-80
2022/04/27 00:03:05;;;;;;;10.95;6.32;;;;;;;12.96;62.23;100265.16;4985153;28;20148;-80
2022/04/27 00:05:33;;;;;;;8.43;5.82;;;;;;;12.96;62.02;100273.16;4980586;28;20042;-81
2022/04/27 00:08:00;;;;;;;10.13;5.95;;;;;;;12.93;61.86;100266.28;4977609;28;20046;-80
2022/04/27 00:10:26;;;;;;;8.65;5.95;;;;;;;12.93;61.79;100258.28;4965479;28;20058;-80
2022/04/27 00:12:53;;;;;;;10.63;6.60;;;;;;;12.93;61.75;100258.28;4985170;28;20046;-81
2022/04/27 00:15:23;;;;;;;13.35;8.15;;;;;;;12.92;61.78;100256.59;4983726;28;20053;-81
2022/04/27 00:17:49;;;;;;;10.90;6.93;;;;;;;12.91;61.67;100257.59;5000784;28;20457;-81
2022/04/27 00:20:16;;;;;;;8.68;5.72;;;;;;;12.91;61.62;100254.91;4986300;28;20050;-81
2022/04/27 00:22:43;;;;;;;8.98;5.82;;;;;;;12.90;61.94;100261.25;4986769;28;20046;-80
2022/04/27 00:25:10;;;;;;;9.50;6.47;;;;;;;12.92;61.66;100263.75;4992461;28;20623;-80
2022/04/27 00:27:37;;;;;;;10.15;6.82;;;;;;;12.91;62.17;100260.25;4990205;28;20042;-81
2022/04/27 00:30:05;;;;;;;11.10;6.00;;;;;;;12.92;62.61;100261.94;4967290;28;20121;-80
2022/04/27 00:32:32;;;;;;;9.68;5.68;;;;;;;12.92;62.82;100264.59;4976687;28;20042;-80
2022/04/27 00:34:58;;;;;;;7.30;5.03;;;;;;;12.93;63.04;100257.47;4960530;28;20067;-80
2022/04/27 00:37:25;;;;;;;6.80;5.10;;;;;;;12.92;63.17;100261.94;4968128;28;20046;-81
2022/04/27 00:39:52;;;;;;;8.23;5.10;;;;;;;12.93;63.43;100268.13;4990681;28;20050;-80
2022/04/27 00:42:24;;;;;;;11.85;5.75;;;;;;;12.92;63.42;100271.75;4989295;28;20048;-81
2022/04/27 00:44:51;;;;;;;7.70;5.38;;;;;;;12.91;63.48;100259.41;4984917;28;20061;-80
2022/04/27 00:47:18;;;;;;;8.02;4.43;;;;;;;12.92;63.16;100266.41;4987611;28;20047;-80
2022/04/27 00:49:47;;;;;;;8.85;5.80;;;;;;;12.92;63.58;100271.75;4986235;28;20057;-83
2022/04/27 00:52:15;;;;;;;7.70;5.05;;;;;;;12.90;63.74;100274.56;4980419;28;20070;-83
2022/04/27 00:54:44;;;;;;;8.80;5.25;;;;;;;12.90;63.73;100273.72;4966991;28;20046;-83
2022/04/27 00:57:11;;;;;;;8.30;5.40;;;;;;;12.89;63.87;100269.38;4964244;28;20046;-83
2022/04/27 00:59:38;;;;;;;8.85;5.30;;;;;;;12.88;63.72;100268.53;4987142;28;20078;-83
2022/04/27 01:02:05;;;;;;;7.82;5.15;;;;;;;12.88;63.96;100276.53;4960762;28;20043;-83
2022/04/27 01:04:33;;;;;;;6.63;5.00;;;;;;;12.88;63.90;100281.03;4983876;28;20050;-83
2022/04/27 01:07:01;;;;;;;11.35;5.22;;;;;;;12.87;63.67;100285.50;4971676;28;20060;-83
2022/04/27 01:09:29;;;;;;;11.73;5.70;;;;;;;12.86;63.92;100285.66;4969561;28;20049;-83
2022/04/27 01:11:57;;;;;;;7.03;5.15;;;;;;;12.86;64.01;100288.31;4983690;28;20084;-83
2022/04/27 01:14:24;;;;;;;7.22;5.45;;;;;;;12.85;63.99;100290.16;4984779;28;20042;-83
2022/04/27 01:16:52;;;;;;;8.02;5.10;;;;;;;12.83;63.81;100289.44;4986712;28;20042;-83
2022/04/27 01:19:21;;;;;;;9.75;5.15;;;;;;;12.82;63.95;100288.59;4969910;28;20054;-82
2022/04/27 01:21:50;;;;;;;11.65;6.13;;;;;;;12.81;63.93;100289.56;4969210;28;20050;-83
2022/04/27 01:24:21;;;;;;;10.45;5.63;;;;;;;12.82;63.78;100293.94;4969103;28;20052;-82
2022/04/27 01:26:49;;;;;;;9.38;5.65;;;;;;;12.80;63.85;100284.38;4986558;28;20042;-83
2022/04/27 01:29:17;;;;;;;10.32;5.60;;;;;;;12.80;64.01;100287.88;4985928;28;20161;-82
2022/04/27 01:31:44;;;;;;;9.57;5.15;;;;;;;12.79;64.04;100283.53;4984641;28;20130;-82
2022/04/27 01:34:12;;;;;;;8.40;5.00;;;;;;;12.80;64.04;100290.56;4986919;28;20061;-83
2022/04/27 01:36:39;;;;;;;8.02;5.50;;;;;;;12.78;63.86;100287.19;5002818;28;20101;-83
2022/04/27 01:39:06;;;;;;;7.88;5.10;;;;;;;12.78;63.84;100289.84;4983627;28;20053;-83
2022/04/27 01:41:36;;;;;;;9.10;5.55;;;;;;;12.78;64.07;100287.19;4967513;28;20130;-83
2022/04/27 01:44:04;;;;;;;10.48;6.10;;;;;;;12.76;63.99;100282.97;4952984;28;20557;-83
2022/04/27 01:46:31;;;;;;;11.13;5.72;;;;;;;12.75;63.89;100289.28;4952525;28;20046;-81
2022/04/27 01:48:58;;;;;;;9.18;5.53;;;;;;;12.74;64.19;100287.59;4968064;28;20058;-81
2022/04/27 01:54:15;;;;;;;8.55;5.30;;;;;;;12.72;64.10;100289.53;4971129;28;20128;-81
2022/04/27 01:56:48;;;;;;;6.57;4.68;;;;;;;12.70;63.93;100291.53;4976485;28;20490;-80
2022/04/27 01:59:15;;;;;;;10.55;5.50;;;;;;;12.72;64.12;100289.53;4981531;28;20050;-81
2022/04/27 02:01:43;;;;;;;10.85;5.72;;;;;;;12.71;64.10;100293.19;4986311;28;20100;-81
2022/04/27 02:04:13;;;;;;;14.63;5.70;;;;;;;12.71;64.10;100298.53;4966415;28;20116;-81
2022/04/27 02:06:40;;;;;;;10.88;5.95;;;;;;;12.70;64.31;100289.69;4967129;28;20053;-81
2022/04/27 02:09:11;;;;;;;9.80;6.43;;;;;;;12.70;64.21;100296.84;4972771;28;20108;-81
2022/04/27 02:11:44;;;;;;;9.23;6.15;;;;;;;12.68;64.12;100299.66;4985986;28;20049;-81
2022/04/27 02:14:11;;;;;;;10.93;7.03;;;;;;;12.67;63.76;100303.31;4999374;28;20065;-81
2022/04/27 02:16:39;;;;;;;9.15;6.43;;;;;;;12.67;63.99;100305.09;4973064;28;20452;-81
2022/04/27 02:19:13;;;;;;;11.05;6.53;;;;;;;12.66;64.04;100301.59;4967468;28;20141;-81
2022/04/27 02:21:41;;;;;;;9.65;6.53;;;;;;;12.65;64.23;100299.09;4985374;28;20054;-80
2022/04/27 02:24:11;;;;;;;11.30;6.30;;;;;;;12.65;64.45;100307.09;5003518;28;20061;-80
2022/04/27 02:26:38;;;;;;;10.38;6.18;;;;;;;12.64;64.28;100308.06;4987278;28;20125;-81
2022/04/27 02:29:05;;;;;;;9.38;6.82;;;;;;;12.63;64.37;100306.38;4971551;28;20046;-81
2022/04/27 02:31:32;;;;;;;11.52;6.32;;;;;;;12.62;64.33;100302.00;4968279;28;20046;-81
2022/04/27 02:34:00;;;;;;;13.15;6.45;;;;;;;12.60;64.24;100303.00;4969204;28;20092;-81
2022/04/27 02:36:26;;;;;;;9.40;5.32;;;;;;;12.60;64.55;100308.34;4967679;28;20070;-81
2022/04/27 02:38:53;;;;;;;12.90;6.63;;;;;;;12.58;64.47;100310.28;4948661;28;20057;-81
2022/04/27 02:41:20;;;;;;;10.32;5.68;;;;;;;12.58;64.44;100314.78;4970075;28;20057;-80
2022/04/27 02:43:49;;;;;;;9.40;6.22;;;;;;;12.55;64.37;100315.88;4975076;28;20045;-81
2022/04/27 02:46:20;;;;;;;11.57;6.03;;;;;;;12.53;64.26;100314.34;4972504;28;20050;-81
2022/04/27 02:51:53;;;;;;;9.68;5.93;;;;;;;12.49;64.35;100318.25;4924701;28;20773;-80
2022/04/27 02:54:43;;;;;;;12.18;6.90;;;;;;;12.46;64.46;100335.34;4930391;28;20058;-80
2022/04/27 02:57:10;;;;;;;11.93;6.30;;;;;;;12.46;64.26;100329.19;4987114;28;20049;-80
2022/04/27 02:59:37;;;;;;;13.20;7.43;;;;;;;12.46;64.32;100332.69;4971472;28;20046;-80
2022/04/27 03:02:04;;;;;;;13.23;6.80;;;;;;;12.45;64.36;100335.50;4969021;28;20386;-81
2022/04/27 03:04:32;;;;;;;10.68;7.10;;;;;;;12.44;64.30;100333.78;4985390;28;20054;-81
2022/04/27 03:07:00;;;;;;;8.38;6.55;;;;;;;12.43;64.18;100332.97;4984275;28;20544;-80
2022/04/27 03:09:27;;;;;;;10.00;7.30;;;;;;;12.43;64.02;100326.78;4969033;28;20405;-80
2022/04/27 03:11:55;;;;;;;12.30;7.53;;;;;;;12.41;63.92;100328.75;4980430;28;20498;-80
2022/04/27 03:14:33;;;;;;;12.88;6.85;;;;;;;12.38;63.78;100328.03;4993995;28;20523;-79
2022/04/27 03:17:01;;;;;;;12.10;7.07;;;;;;;12.37;63.96;100333.50;4962646;28;20053;-79
2022/04/27 03:19:28;;;;;;;10.38;6.43;;;;;;;12.34;64.00;100325.78;4988479;28;20113;-80
2022/04/27 03:21:55;;;;;;;11.13;7.32;;;;;;;12.33;64.15;100329.41;4957005;28;20057;-80
2022/04/27 03:24:22;;;;;;;12.77;7.28;;;;;;;12.31;64.29;100328.69;4942273;28;20049;-80
2022/04/27 03:26:52;;;;;;;10.05;6.55;;;;;;;12.29;64.20;100328.03;4949035;28;20057;-80
2022/04/27 03:29:22;;;;;;;11.63;6.97;;;;;;;12.27;64.04;100337.97;4964575;28;20046;-80
2022/04/27 03:31:55;;;;;;;12.07;7.75;;;;;;;12.24;64.23;100338.22;4997223;28;20109;-79
2022/04/27 03:34:22;;;;;;;11.63;6.90;;;;;;;12.22;64.16;100333.03;4997125;28;20470;-80
2022/04/27 03:36:51;;;;;;;11.07;7.68;;;;;;;12.21;64.35;100341.97;4968232;28;20058;-78
2022/04/27 03:39:20;;;;;;;11.95;6.80;;;;;;;12.19;63.95;100335.97;4966059;28;20069;-81
2022/04/27 03:42:09;;;;;;;11.32;7.78;;;;;;;12.17;64.29;100337.91;4949168;28;20074;-81
2022/04/27 03:44:37;;;;;;;13.13;7.60;;;;;;;12.14;64.20;100335.53;4965827;28;20477;-81
2022/04/27 03:47:05;;;;;;;16.42;7.32;;;;;;;12.10;63.98;100340.25;4981789;28;20133;-81
2022/04/27 03:49:33;;;;;;;12.27;8.13;;;;;;;12.08;64.04;100350.19;4997069;28;20367;-81
2022/04/27 03:52:03;;;;;;;12.02;8.48;;;;;;;12.05;63.95;100353.13;4964864;28;20113;-82
2022/04/27 03:54:30;;;;;;;15.25;9.63;;;;;;;12.04;64.01;100354.09;4967964;28;20054;-81
2022/04/27 03:56:58;;;;;;;16.85;9.25;;;;;;;12.04;64.19;100353.28;4988441;28;20795;-81
2022/04/27 03:59:25;;;;;;;15.27;8.70;;;;;;;12.03;64.27;100355.06;5002624;28;20081;-81
2022/04/27 04:01:52;;;;;;;15.23;9.82;;;;;;;12.01;64.23;100357.03;4984744;28;20125;-82
2022/04/27 04:04:20;;;;;;;15.05;8.23;;;;;;;12.01;64.18;100367.69;4972167;28;20397;-81
2022/04/27 04:06:48;;;;;;;12.85;8.15;;;;;;;11.99;64.17;100364.31;4987003;28;20046;-81
2022/04/27 04:09:16;;;;;;;14.50;9.25;;;;;;;11.96;64.51;100361.91;4989301;28;20494;-81
2022/04/27 04:11:43;;;;;;;14.10;8.18;;;;;;;11.93;64.44;100373.66;4969943;28;20058;-81
2022/04/27 04:14:29;;;;;;;12.50;7.97;;;;;;;11.92;64.54;100377.28;4988262;28;20071;-82
2022/04/27 04:17:00;;;;;;;11.77;7.80;;;;;;;11.89;64.68;100374.91;4988292;28;20038;-85
2022/04/27 04:19:28;;;;;;;13.88;8.57;;;;;;;11.89;64.90;100369.56;4969188;28;20168;-85
2022/04/27 04:22:14;;;;;;;12.75;7.93;;;;;;;11.88;64.72;100375.88;4960763;28;20047;-83
2022/04/27 04:30:22;;;;;;;15.20;8.15;;;;;;;11.88;65.08;100388.31;4957144;28;20081;-80
2022/04/27 04:33:21;;;;;;;11.85;8.23;;;;;;;11.86;64.85;100388.47;4900940;28;20051;-81
2022/04/27 04:35:52;;;;;;;15.55;8.75;;;;;;;11.88;64.79;100396.31;4954299;28;20050;-80
2022/04/27 04:38:20;;;;;;;14.05;8.30;;;;;;;11.89;64.93;100400.66;4967836;28;20157;-80
2022/04/27 04:40:48;;;;;;;12.25;7.80;;;;;;;11.89;64.87;100403.31;4971691;28;20412;-81
2022/04/27 04:43:15;;;;;;;15.13;8.45;;;;;;;11.89;64.96;100403.31;4969923;28;20054;-81
2022/04/27 04:45:42;;;;;;;12.60;8.05;;;;;;;11.87;64.83;100414.09;4953461;28;20486;-81
2022/04/27 04:48:32;;;;;;;12.82;8.95;;;;;;;11.85;65.03;100421.31;4934394;28;20146;-80
2022/04/27 04:51:17;;;;;;;14.40;8.50;;;;;;;11.82;64.94;100426.06;4996673;28;20917;-81
2022/04/27 04:54:25;;;;;;;14.70;8.38;;;;;;;11.78;64.97;100428.16;4893806;28;20387;-80
2022/04/27 04:57:18;;;;;;;17.92;8.65;;;;;;;11.78;65.06;100437.94;4962085;28;20052;-81
2022/04/27 04:59:52;;;;;;;15.57;9.05;;;;;;;11.77;65.42;100437.09;4973596;28;20409;-81
2022/04/27 05:02:33;;;;;;;14.13;8.48;;;;;;;11.77;65.29;100439.75;4965647;28;20126;-81
2022/04/27 05:05:30;;;;;;;13.00;8.55;;;;;;;11.78;65.35;100443.25;4947143;28;20046;-81
2022/04/27 05:08:07;;;;;;;19.60;8.93;;;;;;;11.79;65.51;100445.81;4967885;28;20046;-80
2022/04/27 05:10:46;;;;;;;16.10;8.05;;;;;;;11.81;65.79;100449.19;4987952;28;20048;-80
2022/04/27 05:13:25;;;;;;;15.40;8.30;;;;;;;11.85;65.77;100450.59;4950473;28;20049;-80
2022/04/27 05:16:11;;;;;;;13.18;8.57;;;;;;;11.89;66.07;100448.56;4967295;28;20047;-80
2022/04/27 05:18:59;;;;;;;14.85;9.02;;;;;;;11.93;65.86;100450.84;4954987;28;20058;-80
2022/04/27 05:21:45;;;;;;;15.73;8.20;;;;;;;11.95;66.13;100462.19;4998447;28;20608;-80
2022/04/27 05:24:32;;;;;;;16.05;9.05;;;;;;;11.99;66.03;100461.94;4949893;28;20054;-80
2022/04/27 05:27:17;;;;;;;14.23;8.95;;;;;;;12.01;65.64;100457.31;4985443;28;20041;-80
2022/04/27 05:33:23;;;;;;;18.10;10.05;;;;;;;12.00;65.63;100475.09;4955705;28;20053;-80
2022/04/27 05:36:11;;;;;;;13.98;9.00;;;;;;;12.01;65.78;100482.13;4923227;28;20752;-82
2022/04/27 05:39:00;;;;;;;16.58;9.85;;;;;;;11.99;65.72;100478.75;4950607;28;20344;-80
2022/04/27 05:41:34;;;;;;;17.90;9.98;;;;;;;11.99;65.82;100483.25;4919903;28;20046;-80
2022/04/27 05:44:09;;;;;;;18.15;10.05;;;;;;;11.99;66.07;100489.41;4971384;28;20054;-83
2022/04/27 05:47:03;;;;;;;14.88;9.50;;;;;;;11.95;65.93;100494.13;4955912;28;20054;-84
2022/04/27 05:49:53;;;;;;;15.57;10.27;;;;;;;11.95;66.16;100494.13;4955707;28;20480;-84
2022/04/27 05:52:30;;;;;;;14.82;9.63;;;;;;;11.95;66.24;100495.94;4972036;28;20042;-84
2022/04/27 05:55:14;;;;;;;18.73;10.40;;;;;;;11.98;66.46;100495.69;4955861;28;20055;-83
2022/04/27 05:57:53;;;;;;;18.60;10.90;;;;;;;11.97;66.40;100501.16;4946821;28;20053;-83
2022/04/27 06:00:31;;;;;;;23.27;13.25;;;;;;;12.02;66.01;100506.94;4986939;28;20052;-83
2022/04/27 06:03:17;;;;;;;20.70;11.48;;;;;;;11.99;66.28;100509.84;4962902;28;20054;-83
2022/04/27 06:05:45;;;;;;;22.52;13.07;;;;;;;11.97;65.96;100504.66;4968591;28;20077;-83
2022/04/27 06:08:16;;;;;;;25.98;13.63;;;;;;;12.02;65.79;100514.91;4986816;28;20463;-83
2022/04/27 06:10:45;;;;;;;25.40;14.18;;;;;;;12.02;66.10;100518.41;4957251;28;20379;-83
2022/04/27 06:13:13;;;;;;;22.50;13.70;;;;;;;11.97;65.86;100515.31;4971920;28;20046;-83
2022/04/27 06:15:54;;;;;;;25.95;14.57;;;;;;;12.01;65.67;100515.88;4932579;28;20507;-83
2022/04/27 06:18:52;;;;;;;24.73;14.05;;;;;;;12.01;65.73;100524.72;4969724;28;20042;-84
2022/04/27 06:21:19;;;;;;;20.98;12.73;;;;;;;12.02;65.92;100515.75;4989261;28;20050;-83
2022/04/27 06:23:46;;;;;;;28.70;14.68;;;;;;;12.05;65.60;100514.66;4970658;28;20045;-83
2022/04/27 06:26:14;;;;;;;25.70;14.57;;;;;;;12.07;65.61;100515.38;4971577;28;20052;-83
2022/04/27 06:28:43;;;;;;;31.38;16.10;;;;;;;12.03;66.15;100517.44;4987199;28;20061;-83
2022/04/27 06:31:11;;;;;;;25.85;14.88;;;;;;;12.06;65.52;100522.53;4938216;28;20056;-83
2022/04/27 06:33:38;;;;;;;29.98;15.60;;;;;;;12.10;65.66;100521.28;4960144;28;20249;-83
2022/04/27 06:36:05;;;;;;;28.13;15.20;;;;;;;12.12;65.57;100519.34;4964875;28;20043;-83
2022/04/27 06:38:32;;;;;;;30.52;15.43;;;;;;;12.13;65.71;100521.00;4982649;28;20354;-83
2022/04/27 06:41:10;;;;;;;26.63;15.05;;;;;;;12.12;65.59;100518.50;4991212;28;20130;-83
2022/04/27 06:44:02;;;;;;;30.10;16.63;;;;;;;12.10;66.17;100531.09;4972554;28;20096;-83
2022/04/27 06:46:48;;;;;;;36.13;17.30;;;;;;;12.00;66.05;100536.31;4995763;28;20051;-82
2022/04/27 06:49:53;;;;;;;43.10;20.13;;;;;;;11.99;65.84;100533.81;4962654;28;20133;-83
2022/04/27 06:52:45;;;;;;;45.40;19.73;;;;;;;11.90;65.67;100541.56;4992311;28;20050;-83
2022/04/27 06:55:31;;;;;;;38.30;18.30;;;;;;;11.93;65.57;100540.47;4987093;28;20133;-83
2022/04/27 06:58:13;;;;;;;40.90;20.80;;;;;;;11.98;65.63;100543.59;4983503;28;20054;-83
2022/04/27 07:00:41;;;;;;;40.20;19.80;;;;;;;11.82;66.36;100545.81;4964937;28;20397;-83
2022/04/27 07:03:08;;;;;;;36.67;18.63;;;;;;;11.92;66.73;100546.78;4969287;28;20525;-82
2022/04/27 07:05:35;;;;;;;38.97;18.02;;;;;;;11.94;66.49;100550.16;4964977;28;20046;-82
2022/04/27 07:08:04;;;;;;;36.83;19.00;;;;;;;12.00;66.17;100546.97;4949360;28;20418;-82
2022/04/27 07:10:36;;;;;;;39.33;17.73;;;;;;;12.00;66.40;100556.78;4964328;28;20045;-82
2022/04/27 07:13:05;;;;;;;38.17;19.20;;;;;;;12.03;66.17;100549.38;4962059;28;20098;-82
2022/04/27 07:15:32;;;;;;;38.05;18.83;;;;;;;12.07;66.18;100552.66;4982479;28;20381;-82
2022/04/27 07:17:58;;;;;;;35.92;18.15;;;;;;;12.09;66.47;100554.22;4962300;28;20082;-82
2022/04/27 07:20:25;;;;;;;34.45;17.75;;;;;;;12.11;66.44;100554.06;4982826;28;20059;-82
2022/04/27 07:22:52;;;;;;;40.90;20.30;;;;;;;12.18;67.17;100560.56;4969057;28;20402;-82
2022/04/27 07:25:19;;;;;;;40.70;19.98;;;;;;;12.19;66.20;100558.75;4966111;28;20076;-84
2022/04/27 07:27:45;;;;;;;38.30;19.05;;;;;;;12.22;66.44;100556.69;4983148;28;20108;-84
2022/04/27 07:30:13;;;;;;;38.30;18.92;;;;;;;12.21;66.66;100562.97;4972000;28;20081;-84
2022/04/27 07:32:39;;;;;;;36.33;18.83;;;;;;;12.26;66.38;100558.13;4986386;28;20038;-84
2022/04/27 07:35:07;;;;;;;36.75;17.40;;;;;;;12.29;66.21;100560.53;4985612;28;20406;-84
2022/04/27 07:37:37;;;;;;;33.72;15.77;;;;;;;12.25;66.15;100564.41;4970139;28;20830;-84
2022/04/27 07:40:08;;;;;;;30.77;17.15;;;;;;;12.29;66.25;100559.69;4985325;28;20042;-84
2022/04/27 07:42:35;;;;;;;27.13;13.85;;;;;;;12.32;66.25;100564.75;4981345;28;20046;-84
2022/04/27 07:45:02;;;;;;;37.45;18.38;;;;;;;12.42;66.13;100570.16;4982833;28;20039;-84
2022/04/27 07:47:37;;;;;;;28.77;16.50;;;;;;;12.30;65.82;100572.03;4984073;28;20050;-83
2022/04/27 07:50:06;;;;;;;30.45;16.25;;;;;;;12.34;65.92;100573.47;4981683;28;20113;-83
2022/04/27 07:52:33;;;;;;;30.45;16.08;;;;;;;12.35;66.12;100575.97;4965593;28;20081;-83
2022/04/27 07:55:00;;;;;;;31.27;16.48;;;;;;;12.38;66.48;100588.19;4968963;28;20061;-83
2022/04/27 07:57:30;;;;;;;24.88;14.18;;;;;;;12.45;65.94;100586.72;4985303;28;20038;-83
2022/04/27 07:59:58;;;;;;;25.02;13.38;;;;;;;12.49;65.82;100590.81;4987208;28;20511;-83
2022/04/27 08:02:25;;;;;;;24.60;13.40;;;;;;;12.50;66.41;100597.81;4983612;28;20042;-83
2022/04/27 08:04:52;;;;;;;24.65;13.70;;;;;;;12.59;66.74;100590.84;4952821;28;20051;-83
2022/04/27 08:07:19;;;;;;;18.48;10.95;;;;;;;12.63;66.21;100600.28;4987095;28;20041;-83
2022/04/27 08:09:45;;;;;;;17.65;10.25;;;;;;;12.62;65.99;100606.59;4979308;28;20043;-83
2022/04/27 08:12:12;;;;;;;16.58;10.07;;;;;;;12.62;65.54;100606.59;4986061;28;20078;-83
2022/04/27 08:14:39;;;;;;;17.00;10.75;;;;;;;12.68;65.55;100608.75;4984222;28;20046;-83
2022/04/27 08:17:06;;;;;;;17.00;10.35;;;;;;;12.69;65.78;100606.91;4982670;28;20116;-83
2022/04/27 08:19:32;;;;;;;20.95;10.73;;;;;;;12.72;65.70;100610.19;4980194;28;20141;-83
2022/04/27 08:22:01;;;;;;;19.50;9.73;;;;;;;12.73;65.92;100603.03;4966630;28;20122;-83
2022/04/27 08:24:28;;;;;;;23.27;10.10;;;;;;;12.73;65.78;100611.84;4970216;28;20046;-82
2022/04/27 08:26:55;;;;;;;16.83;9.48;;;;;;;12.76;65.39;100616.91;4986474;28;20380;-84
2022/04/27 08:29:22;;;;;;;14.25;8.63;;;;;;;12.80;65.82;100612.19;4984267;28;20050;-83
2022/04/27 08:31:48;;;;;;;15.02;8.68;;;;;;;12.81;64.59;100608.53;4986818;28;20042;-83
2022/04/27 08:34:16;;;;;;;14.55;8.40;;;;;;;12.80;65.03;100621.03;4986381;28;20049;-83
2022/04/27 08:36:43;;;;;;;15.57;8.20;;;;;;;12.79;64.41;100618.47;4983877;28;20049;-83
2022/04/27 08:39:10;;;;;;;16.23;9.05;;;;;;;12.81;64.70;100621.88;4969357;28;20077;-83
2022/04/27 08:41:38;;;;;;;14.77;9.20;;;;;;;12.81;64.73;100620.03;4990471;28;20046;-83
2022/04/27 08:44:07;;;;;;;16.08;9.25;;;;;;;12.83;63.93;100625.25;4972199;28;20054;-83
2022/04/27 08:46:34;;;;;;;15.75;9.30;;;;;;;12.84;64.51;100623.44;4984849;28;20057;-83
2022/04/27 08:49:08;;;;;;;16.42;9.70;;;;;;;12.78;64.31;100625.63;4971442;28;20532;-83
2022/04/27 08:51:37;;;;;;;12.80;8.30;;;;;;;12.80;64.03;100623.69;4969457;28;20500;-83
2022/04/27 08:54:04;;;;;;;14.93;9.05;;;;;;;12.85;63.91;100625.09;4953113;28;20042;-83
2022/04/27 08:56:33;;;;;;;15.07;8.95;;;;;;;12.87;64.14;100623.16;4981391;28;20522;-83
2022/04/27 08:59:00;;;;;;;17.33;9.38;;;;;;;12.91;64.68;100637.91;4990792;28;20042;-80
2022/04/27 09:01:27;;;;;;;16.42;10.27;;;;;;;12.86;64.56;100624.16;4988266;28;20465;-80
2022/04/27 09:04:11;;;;;;;17.52;9.77;;;;;;;12.77;64.22;100626.63;4984340;28;20441;-80
2022/04/27 09:06:39;;;;;;;18.63;10.80;;;;;;;12.82;63.80;100623.53;4983907;28;20101;-80
2022/04/27 09:09:10;;;;;;;16.98;9.68;;;;;;;12.77;64.14;100631.09;4963837;28;20050;-80
2022/04/27 09:11:37;;;;;;;15.52;10.10;;;;;;;12.84;64.17;100620.75;4995494;28;20069;-80
2022/04/27 09:14:07;;;;;;;17.48;10.52;;;;;;;12.81;64.22;100630.69;4968407;28;20043;-80
2022/04/27 09:22:46;;;;;;;15.35;8.45;;;;;;;12.98;63.69;100633.75;4907125;28;20072;-80
2022/04/27 09:25:13;;;;;;;14.15;9.20;;;;;;;12.87;63.59;100634.66;4954324;28;20070;-80
2022/04/27 09:27:41;;;;;;;14.05;9.52;;;;;;;12.89;63.42;100634.53;4947974;28;20517;-80
2022/04/27 09:30:10;;;;;;;12.55;8.13;;;;;;;12.96;63.38;100633.88;4966650;28;20050;-80
2022/04/27 09:32:37;;;;;;;12.18;8.05;;;;;;;12.97;63.75;100634.72;4968559;28;20051;-80
2022/04/27 09:35:08;;;;;;;14.75;9.02;;;;;;;13.09;63.41;100643.50;4986121;28;20069;-80
2022/04/27 09:37:41;;;;;;;14.85;9.18;;;;;;;13.07;62.28;100640.13;4979855;28;20904;-80
2022/04/27 09:40:13;;;;;;;16.43;8.63;;;;;;;13.03;62.29;100636.88;4969264;28;20580;-81
2022/04/27 09:42:43;;;;;;;15.10;9.30;;;;;;;13.03;62.74;100631.53;4952538;28;20977;-81
2022/04/27 09:45:20;;;;;;;14.13;9.48;;;;;;;13.01;63.08;100637.00;4974232;28;20054;-81
2022/04/27 09:47:53;;;;;;;13.15;9.00;;;;;;;13.13;63.08;100640.44;4933969;28;20050;-81
2022/04/27 09:50:20;;;;;;;15.35;9.10;;;;;;;13.12;63.19;100632.56;4966868;28;20038;-81
2022/04/27 09:52:47;;;;;;;17.00;9.32;;;;;;;13.16;62.09;100628.66;4965568;28;20124;-81
2022/04/27 09:55:13;;;;;;;11.75;8.85;;;;;;;13.17;62.89;100631.19;4967024;28;20051;-80
2022/04/27 09:57:53;;;;;;;13.73;8.23;;;;;;;13.16;62.59;100629.50;4955021;28;20144;-80
2022/04/27 10:00:20;;;;;;;12.90;8.32;;;;;;;13.24;62.94;100637.66;4982467;28;20417;-81
2022/04/27 10:02:48;;;;;;;12.85;8.10;;;;;;;13.34;63.24;100637.75;4982224;28;20704;-81
2022/04/27 10:05:15;;;;;;;18.50;10.00;;;;;;;13.35;63.03;100634.09;4983668;28;20133;-80
2022/04/27 10:07:42;;;;;;;14.82;10.13;;;;;;;13.32;62.73;100631.69;4985647;28;20038;-80
2022/04/27 10:10:10;;;;;;;17.48;9.88;;;;;;;13.32;63.60;100633.53;4973887;28;20048;-80
2022/04/27 10:12:39;;;;;;;13.88;8.95;;;;;;;13.29;63.11;100639.13;4987470;28;20038;-82
2022/04/27 10:15:06;;;;;;;15.38;9.50;;;;;;;13.23;62.96;100638.66;4988116;28;20077;-80
2022/04/27 10:17:34;;;;;;;14.40;9.18;;;;;;;13.32;62.56;100629.03;4980775;28;20505;-80
2022/04/27 10:20:28;;;;;;;18.27;10.55;;;;;;;13.25;62.21;100639.38;4984254;28;20046;-80
2022/04/27 10:23:21;;;;;;;14.73;9.82;;;;;;;13.17;62.18;100641.00;4951456;28;20050;-80
2022/04/27 10:26:07;;;;;;;;;;;;;;;12.99;62.55;100630.09;4916769;28;20069;-80
2022/04/27 10:28:36;;;;;;;16.98;10.15;;;;;;;13.02;62.22;100622.69;4965424;28;19921;-80
2022/04/27 10:31:04;;;;;;;19.13;10.10;;;;;;;12.99;62.51;100630.09;5001862;28;20054;-80
2022/04/27 10:33:39;;;;;;;16.60;10.70;;;;;;;13.09;61.49;100632.84;4982828;28;20072;-80
2022/04/27 10:36:37;;;;;;;16.42;9.75;;;;;;;13.06;61.92;100627.78;4950014;28;20525;-80
2022/04/27 10:39:13;;;;;;;15.50;9.80;;;;;;;13.23;61.12;100620.00;4951996;28;20153;-81
2022/04/27 10:42:05;;;;;;;20.85;9.77;;;;;;;13.27;61.25;100617.09;4989708;28;20074;-81
2022/04/27 10:44:50;;;;;;;14.38;9.57;;;;;;;13.32;62.00;100620.19;4921378;28;20809;-81
2022/04/27 10:47:18;;;;;;;18.02;8.88;;;;;;;13.50;62.04;100617.72;4984238;28;20065;-81
2022/04/27 10:49:50;;;;;;;14.57;9.07;;;;;;;13.56;62.48;100618.03;4970581;28;20103;-81
2022/04/27 10:52:23;;;;;;;15.05;9.52;;;;;;;13.61;61.67;100612.28;5001724;28;20039;-80
2022/04/27 10:54:49;;;;;;;16.83;9.43;;;;;;;13.65;61.84;100611.03;4988223;28;20167;-81
2022/04/27 10:57:19;;;;;;;14.85;9.57;;;;;;;13.73;61.72;100613.03;4971366;28;20057;-81
2022/04/27 10:59:51;;;;;;;16.65;9.63;;;;;;;13.75;61.12;100609.22;4967991;28;20057;-81
2022/04/27 11:02:33;;;;;;;18.00;10.27;;;;;;;13.75;61.57;100608.41;4986659;28;20100;-81
2022/04/27 11:05:12;;;;;;;16.42;10.32;;;;;;;13.72;60.54;100603.34;4981062;28;20059;-80
2022/04/27 11:07:44;;;;;;;18.27;10.20;;;;;;;13.83;61.60;100608.53;4989410;28;20047;-80
2022/04/27 11:10:18;;;;;;;17.58;11.05;;;;;;;13.70;60.06;100623.97;4948550;28;20039;-80
2022/04/27 11:13:05;;;;;;;15.40;9.65;;;;;;;13.71;60.35;100620.31;4941751;28;20043;-80
2022/04/27 11:15:32;;;;;;;13.65;9.55;;;;;;;13.70;59.89;100616.81;4963997;28;20046;-80
2022/04/27 11:18:03;;;;;;;20.90;10.07;;;;;;;13.67;60.66;100609.09;4963307;28;20109;-80
2022/04/27 11:20:38;;;;;;;15.27;9.75;;;;;;;13.60;60.97;100600.75;4963241;28;20621;-80
2022/04/27 11:23:07;;;;;;;14.27;8.57;;;;;;;13.79;58.86;100596.44;4966089;28;20043;-80
2022/04/27 11:25:40;;;;;;;14.35;8.85;;;;;;;13.72;58.83;100603.34;4964366;28;20125;-80
2022/04/27 11:28:08;;;;;;;14.43;8.43;;;;;;;13.79;58.53;100601.78;4981649;28;20050;-80
2022/04/27 11:30:34;;;;;;;15.43;8.70;;;;;;;13.84;58.76;100607.56;4962506;28;20049;-80
2022/04/27 11:33:02;;;;;;;11.50;8.38;;;;;;;13.98;58.04;100598.31;4997047;28;20053;-81
2022/04/27 11:35:45;;;;;;;13.63;8.77;;;;;;;13.87;56.90;100600.13;4967476;28;20133;-81
2022/04/27 11:38:18;;;;;;;;;;;;;;;13.72;58.76;100600.66;4981607;28;20105;-80
2022/04/27 11:40:46;;;;;;;13.25;8.02;;;;;;;13.93;59.34;100598.72;4998835;28;19932;-83
2022/04/27 11:43:13;;;;;;;15.73;8.25;;;;;;;13.97;58.19;100594.81;4980094;28;20038;-83
2022/04/27 11:45:39;;;;;;;13.00;8.68;;;;;;;13.96;58.16;100593.09;4967438;28;20456;-83
2022/04/27 11:48:09;;;;;;;12.05;7.38;;;;;;;14.01;58.52;100595.34;4966203;28;20622;-83
2022/04/27 11:50:37;;;;;;;11.57;8.00;;;;;;;14.00;57.67;100599.03;4981340;28;20042;-83
2022/04/27 11:53:13;;;;;;;13.57;8.35;;;;;;;14.02;57.18;100600.56;4983613;28;20042;-83
2022/04/27 11:55:42;;;;;;;12.68;7.85;;;;;;;14.08;57.68;100605.34;4953919;28;20125;-80
2022/04/27 11:58:09;;;;;;;11.65;7.32;;;;;;;14.10;56.31;100599.88;4969639;28;20034;-80